• Join FlightAware (Why Join?)
  • Login
  • US Flag 
09:14PM EDT


 

Airport Tracker/Info


-or-


 

Live Flight TrackerFlight Track Log ✈ N287KB ✈ 24-Aug-2014 ✈ KSDM - KSCK

Flight Track Log - Related Links

Times and Time Zones

All times are in EDT time to prevent confusion due to time zone crossing. See the N287KB flight status page for this flight to view local times or setup timezone preferences in your user account.

Time Position Orientation Groundspeed Altitude Reporting Facility
EDT Latitude Longitude Course Direction KTS MPH feet Rate Location/Type
07:04PM 32.6003 -117.1319 280° West 258 297 6,300  Level Los Angeles Center
07:05PM 32.6336 -117.2094 297° West 274 315 9,900 2,760 Climbing Los Angeles Center
07:06PM 32.6922 -117.2839 313° West 303 349 12,100 1,740 Climbing Los Angeles Center
07:07PM 32.7572 -117.3856 307° West 375 432 13,600 1,500 Climbing Los Angeles Center
07:08PM 32.8433 -117.4853 316° Northwest 404 465 15,200 2,340 Climbing Los Angeles Center
07:09PM 32.9356 -117.5706 322° Northwest 416 479 18,500 3,000 Climbing Los Angeles Center
07:10PM 33.0497 -117.6694 324° Northwest 420 483 21,400 2,460 Climbing Los Angeles Center
07:11PM 33.1503 -117.7547 325° Northwest 439 505 23,600 2,400 Climbing Los Angeles Center
07:12PM 33.2481 -117.8444 323° Northwest 445 512 26,400 2,100 Climbing Los Angeles Center
07:14PM 33.4283 -118.0506 316° Northwest 453 521 30,200 1,740 Climbing Los Angeles Center
07:15PM 33.5186 -118.1514 317° Northwest 448 516 31,800 780 Climbing Los Angeles Center
07:16PM 33.6369 -118.2547 324° Northwest 450 518 31,900  Climbing Los Angeles Center
07:17PM 33.7494 -118.3222 333° Northwest 471 542 31,900  Level Los Angeles Center
07:18PM 33.8736 -118.3681 343° North 481 554 32,000  Climbing Los Angeles Center
07:19PM 34.0289 -118.4147 346° North 483 556 31,900 -60 Descending Los Angeles Center
07:20PM 34.1592 -118.4581 345° North 483 556 31,900  Level Los Angeles Center
07:21PM 34.2900 -118.4922 348° North 483 556 31,900  Level Los Angeles Center
07:22PM 34.4178 -118.5222 349° North 473 544 31,900  Level Los Angeles Center
07:23PM 34.5383 -118.5769 340° North 466 536 31,900  Level Los Angeles Center
07:24PM 34.6803 -118.6492 337° Northwest 463 533 31,900  Level Los Angeles Center
07:26PM 34.9178 -118.7711 337° Northwest 460 529 31,900  Level Los Angeles Center
07:27PM 35.0369 -118.8319 337° Northwest 461 531 31,900  Level Los Angeles Center
07:28PM 35.1533 -118.8931 337° Northwest 460 529 31,900  Level Los Angeles Center
07:30PM 35.2717 -118.9531 338° Northwest 462 532 31,900  Level Los Angeles Center
07:31PM 35.4111 -119.0272 337° Northwest 459 528 31,900  Level Los Angeles Center
07:32PM 35.5275 -119.0869 337° Northwest 456 525 31,900  Level Los Angeles Center
07:33PM 35.6436 -119.1489 337° Northwest 456 525 31,900  Level Los Angeles Center
07:34PM 35.7592 -119.2100 337° Northwest 456 525 31,900  Level Los Angeles Center
07:35PM 35.8961 -119.2831 337° Northwest 456 525 31,900  Level Oakland Center
07:36PM 36.0103 -119.3442 337° Northwest 456 525 31,900  Level Oakland Center
07:37PM 36.1475 -119.4167 337° Northwest 452 520 31,900  Level Oakland Center
07:39PM 36.3553 -119.5300 336° Northwest 452 520 31,900  Level Los Angeles Center
07:40PM 36.4692 -119.5914 337° Northwest 450 518 31,900 -540 Level Los Angeles Center
07:41PM 36.6050 -119.6639 337° Northwest 451 519 30,800 -1,380 Descending Oakland Center
07:42PM 36.7189 -119.7250 337° Northwest 450 518 28,900 -1,860 Descending Oakland Center
07:43PM 36.8350 -119.7878 337° Northwest 451 519 27,000 -1,860 Descending Oakland Center
07:44PM 36.9483 -119.9061 320° Northwest 453 521 25,200 -1,320 Descending Oakland Center
07:45PM 37.0311 -120.0206 312° West 446 513 24,300 -960 Descending Oakland Center
07:46PM 37.1089 -120.1306 312° West 444 511 23,300 -1,080 Descending Oakland Center
07:47PM 37.1869 -120.2450 311° West 437 503 22,200 -1,500 Descending Oakland Center
07:48PM 37.2656 -120.3550 312° West 429 494 20,300 -2,400 Descending Oakland Center
07:49PM 37.3667 -120.4833 315° West 486 559 17,100 -2,580 Descending Northern Cal TRACON
07:51PM 37.4975 -120.6864 309° West 377 434 12,500 -2,280 Descending Oakland Center
07:52PM 37.5667 -120.7833 312° West 350 403 10,400 -1,680 Descending Northern Cal TRACON
07:53PM 37.6333 -120.8667 315° West 309 356 9,100 -1,680 Descending Northern Cal TRACON
07:54PM 37.6833 -120.9500 307° West 295 339 7,100 -1,980 Descending Northern Cal TRACON
07:55PM 37.7333 -121.0167 313° West 283 326 5,200 -1,860 Descending Northern Cal TRACON
07:56PM 37.7833 -121.0667 322° Northwest 250 288 3,400 -1,560 Descending Northern Cal TRACON
07:57PM 37.8333 -121.1333 314° West 193 222 2,100 -1,140 Descending Northern Cal TRACON
07:58PM 37.8500 -121.1667 302° West 128 147 1,200 -780 Descending Northern Cal TRACON
07:59PM 37.8667 -121.2000 302° West 127 146 600 -600 Descending Northern Cal TRACON
08:01PM 37.8942 -121.2383 314° West  Level Estimated